sensor_id;sensor_type;location;lat;lon;timestamp;temperature;humidity
29255;DHT22;16277;48.890;2.306;2023-05-07T00:07:10;20.10;99.90
29255;DHT22;16277;48.890;2.306;2023-05-07T00:22:15;20.10;99.90
29255;DHT22;16277;48.890;2.306;2023-05-07T00:37:20;20.10;99.90
29255;DHT22;16277;48.890;2.306;2023-05-07T00:52:25;20.00;99.90
29255;DHT22;16277;48.890;2.306;2023-05-07T01:07:31;19.90;99.90
29255;DHT22;16277;48.890;2.306;2023-05-07T01:22:36;20.00;99.90
29255;DHT22;16277;48.890;2.306;2023-05-07T01:37:42;19.90;99.90
29255;DHT22;16277;48.890;2.306;2023-05-07T01:52:50;19.80;99.90
29255;DHT22;16277;48.890;2.306;2023-05-07T02:07:54;19.80;99.90
29255;DHT22;16277;48.890;2.306;2023-05-07T02:23:00;19.80;99.90
29255;DHT22;16277;48.890;2.306;2023-05-07T02:38:06;19.80;99.90
29255;DHT22;16277;48.890;2.306;2023-05-07T02:53:11;19.80;99.90
29255;DHT22;16277;48.890;2.306;2023-05-07T03:08:15;19.70;99.90
29255;DHT22;16277;48.890;2.306;2023-05-07T03:23:20;19.70;99.90
29255;DHT22;16277;48.890;2.306;2023-05-07T03:38:27;19.40;99.90
29255;DHT22;16277;48.890;2.306;2023-05-07T03:53:32;19.20;99.90
29255;DHT22;16277;48.890;2.306;2023-05-07T04:08:36;19.40;99.90
29255;DHT22;16277;48.890;2.306;2023-05-07T04:23:42;19.40;99.90
29255;DHT22;16277;48.890;2.306;2023-05-07T04:38:49;19.20;99.90
29255;DHT22;16277;48.890;2.306;2023-05-07T04:53:55;18.90;99.90
29255;DHT22;16277;48.890;2.306;2023-05-07T05:09:00;18.80;99.90
29255;DHT22;16277;48.890;2.306;2023-05-07T05:24:07;19.10;99.90
29255;DHT22;16277;48.890;2.306;2023-05-07T05:39:12;19.20;99.90
29255;DHT22;16277;48.890;2.306;2023-05-07T05:54:17;19.20;99.90
29255;DHT22;16277;48.890;2.306;2023-05-07T06:09:22;18.90;99.90
29255;DHT22;16277;48.890;2.306;2023-05-07T06:24:26;19.20;99.90
29255;DHT22;16277;48.890;2.306;2023-05-07T06:39:31;19.00;99.90
29255;DHT22;16277;48.890;2.306;2023-05-07T06:54:36;19.30;99.90
29255;DHT22;16277;48.890;2.306;2023-05-07T07:09:40;18.80;99.90
29255;DHT22;16277;48.890;2.306;2023-05-07T07:24:46;18.90;99.90
29255;DHT22;16277;48.890;2.306;2023-05-07T07:39:53;19.20;99.90
29255;DHT22;16277;48.890;2.306;2023-05-07T07:54:58;19.30;99.90
29255;DHT22;16277;48.890;2.306;2023-05-07T08:10:03;19.40;99.90
29255;DHT22;16277;48.890;2.306;2023-05-07T08:25:08;19.30;99.90
29255;DHT22;16277;48.890;2.306;2023-05-07T08:40:14;19.50;99.90
29255;DHT22;16277;48.890;2.306;2023-05-07T08:55:20;19.70;99.90
29255;DHT22;16277;48.890;2.306;2023-05-07T09:10:25;19.70;99.90
29255;DHT22;16277;48.890;2.306;2023-05-07T09:25:31;19.50;99.90
29255;DHT22;16277;48.890;2.306;2023-05-07T09:40:41;19.80;99.90
29255;DHT22;16277;48.890;2.306;2023-05-07T09:55:49;20.10;99.90
29255;DHT22;16277;48.890;2.306;2023-05-07T10:10:56;20.40;99.90
29255;DHT22;16277;48.890;2.306;2023-05-07T10:26:05;20.40;99.90
29255;DHT22;16277;48.890;2.306;2023-05-07T10:41:12;20.40;99.90
29255;DHT22;16277;48.890;2.306;2023-05-07T10:56:26;20.70;99.90
29255;DHT22;16277;48.890;2.306;2023-05-07T11:11:46;20.90;99.90
29255;DHT22;16277;48.890;2.306;2023-05-07T11:27:14;20.70;99.90
29255;DHT22;16277;48.890;2.306;2023-05-07T11:42:29;20.70;99.90
29255;DHT22;16277;48.890;2.306;2023-05-07T11:57:34;21.40;99.90
29255;DHT22;16277;48.890;2.306;2023-05-07T12:12:41;21.30;99.90
29255;DHT22;16277;48.890;2.306;2023-05-07T12:27:53;21.30;99.90
29255;DHT22;16277;48.890;2.306;2023-05-07T12:42:59;21.20;99.90
29255;DHT22;16277;48.890;2.306;2023-05-07T12:58:03;21.00;99.90
29255;DHT22;16277;48.890;2.306;2023-05-07T13:13:08;21.00;99.90
29255;DHT22;16277;48.890;2.306;2023-05-07T13:28:12;20.70;99.90
29255;DHT22;16277;48.890;2.306;2023-05-07T13:43:17;20.40;99.90
29255;DHT22;16277;48.890;2.306;2023-05-07T13:58:22;19.90;99.90
29255;DHT22;16277;48.890;2.306;2023-05-07T14:13:26;20.30;99.90
29255;DHT22;16277;48.890;2.306;2023-05-07T14:28:31;20.50;99.90
29255;DHT22;16277;48.890;2.306;2023-05-07T14:43:35;22.60;99.90
29255;DHT22;16277;48.890;2.306;2023-05-07T14:58:40;26.90;99.90
29255;DHT22;16277;48.890;2.306;2023-05-07T15:13:44;22.90;99.90
29255;DHT22;16277;48.890;2.306;2023-05-07T15:28:49;21.20;99.90
29255;DHT22;16277;48.890;2.306;2023-05-07T15:43:53;20.30;99.90
29255;DHT22;16277;48.890;2.306;2023-05-07T15:58:58;21.90;99.90
29255;DHT22;16277;48.890;2.306;2023-05-07T16:14:02;24.20;99.90
29255;DHT22;16277;48.890;2.306;2023-05-07T16:29:06;26.50;99.90
29255;DHT22;16277;48.890;2.306;2023-05-07T16:44:11;23.00;99.90
29255;DHT22;16277;48.890;2.306;2023-05-07T16:59:15;22.60;99.90
29255;DHT22;16277;48.890;2.306;2023-05-07T17:14:20;21.80;99.90
29255;DHT22;16277;48.890;2.306;2023-05-07T17:29:24;21.40;99.90
29255;DHT22;16277;48.890;2.306;2023-05-07T17:44:29;21.10;99.90
29255;DHT22;16277;48.890;2.306;2023-05-07T17:59:33;20.00;99.90
29255;DHT22;16277;48.890;2.306;2023-05-07T18:14:38;20.70;99.90
29255;DHT22;16277;48.890;2.306;2023-05-07T18:29:42;20.20;99.90
29255;DHT22;16277;48.890;2.306;2023-05-07T18:44:47;20.60;99.90
29255;DHT22;16277;48.890;2.306;2023-05-07T18:59:52;20.50;99.90
29255;DHT22;16277;48.890;2.306;2023-05-07T19:14:57;20.30;99.90
29255;DHT22;16277;48.890;2.306;2023-05-07T19:30:02;20.00;99.90
29255;DHT22;16277;48.890;2.306;2023-05-07T19:45:07;19.50;99.90
29255;DHT22;16277;48.890;2.306;2023-05-07T20:00:13;19.20;99.90
29255;DHT22;16277;48.890;2.306;2023-05-07T20:15:18;19.00;99.90
29255;DHT22;16277;48.890;2.306;2023-05-07T20:30:23;19.10;99.90
29255;DHT22;16277;48.890;2.306;2023-05-07T20:45:28;18.80;99.90
29255;DHT22;16277;48.890;2.306;2023-05-07T21:00:32;18.70;99.90
29255;DHT22;16277;48.890;2.306;2023-05-07T21:15:38;18.60;99.90
29255;DHT22;16277;48.890;2.306;2023-05-07T21:30:43;18.90;99.90
29255;DHT22;16277;48.890;2.306;2023-05-07T21:45:48;19.20;99.90
29255;DHT22;16277;48.890;2.306;2023-05-07T22:00:52;19.20;99.90
29255;DHT22;16277;48.890;2.306;2023-05-07T22:15:57;19.10;99.90
29255;DHT22;16277;48.890;2.306;2023-05-07T22:31:01;19.10;99.90
29255;DHT22;16277;48.890;2.306;2023-05-07T22:46:06;18.50;99.90
29255;DHT22;16277;48.890;2.306;2023-05-07T23:01:14;19.30;99.90
29255;DHT22;16277;48.890;2.306;2023-05-07T23:16:19;18.70;99.90
29255;DHT22;16277;48.890;2.306;2023-05-07T23:31:24;18.70;99.90
29255;DHT22;16277;48.890;2.306;2023-05-07T23:46:28;18.40;99.90
